Time;durP1;ratioP1;P1;durP2;ratioP2;P2;SDS_P1;SDS_P2;PMS_P1;PMS_P2;Temp;Humidity;BMP_temperature;BMP_pressure;BME280_temperature;BME280_humidity;BME280_pressure;Samples;Min_cycle;Max_cycle;Signal;HPM_P1;HPM_P2
2022/12/21 00:01:14;;;;;;;96.32;64.68;;;;;;;;;;5100936;28;20454;-75
2022/12/21 00:03:40;;;;;;;94.40;64.25;;;;;;;;;;5103229;28;20027;-75
2022/12/21 00:06:05;;;;;;;100.93;68.30;;;;;;;;;;5104212;28;20057;-75
2022/12/21 00:08:44;;;;;;;113.32;74.72;;;;;;;;;;5097701;28;20099;-76
2022/12/21 00:11:10;;;;;;;114.30;76.72;;;;;;;;;;5097690;28;20023;-76
2022/12/21 00:13:35;;;;;;;110.00;74.57;;;;;;;;;;5090020;28;20027;-76
2022/12/21 00:16:01;;;;;;;112.85;78.45;;;;;;;;;;5090055;27;20031;-75
2022/12/21 00:18:27;;;;;;;135.10;94.15;;;;;;;;;;5097548;28;20042;-77
2022/12/21 00:20:56;;;;;;;141.50;97.97;;;;;;;;;;5095134;28;20051;-76
2022/12/21 00:23:21;;;;;;;135.30;93.38;;;;;;;;;;5102704;28;20044;-75
2022/12/21 00:25:46;;;;;;;136.15;95.13;;;;;;;;;;5103631;28;20039;-75
2022/12/21 00:28:12;;;;;;;124.43;86.68;;;;;;;;;;5096622;28;20031;-76
2022/12/21 00:30:37;;;;;;;129.25;87.97;;;;;;;;;;5097174;28;20020;-75
2022/12/21 00:33:02;;;;;;;114.68;79.18;;;;;;;;;;5103375;28;20035;-76
2022/12/21 00:35:28;;;;;;;108.40;73.13;;;;;;;;;;5102882;28;20065;-77
2022/12/21 00:37:53;;;;;;;116.40;77.43;;;;;;;;;;5102911;28;20447;-77
2022/12/21 00:40:18;;;;;;;131.60;91.63;;;;;;;;;;5092042;28;20034;-76
2022/12/21 00:42:43;;;;;;;146.38;104.15;;;;;;;;;;5091217;28;20100;-78
2022/12/21 00:45:09;;;;;;;118.25;82.07;;;;;;;;;;5097339;28;20019;-76
2022/12/21 00:47:34;;;;;;;101.43;70.10;;;;;;;;;;5096320;28;20035;-75
2022/12/21 00:49:59;;;;;;;132.23;95.95;;;;;;;;;;5102217;28;20034;-74
2022/12/21 00:52:26;;;;;;;140.63;98.47;;;;;;;;;;5102871;28;20553;-75
2022/12/21 00:54:52;;;;;;;116.22;77.68;;;;;;;;;;5102564;28;20034;-75
2022/12/21 00:57:17;;;;;;;106.47;75.65;;;;;;;;;;5102430;28;20438;-76
2022/12/21 00:59:42;;;;;;;102.28;70.82;;;;;;;;;;5100141;28;20023;-76
2022/12/21 01:02:08;;;;;;;103.80;75.07;;;;;;;;;;5092926;28;20063;-77
2022/12/21 01:04:33;;;;;;;106.40;72.65;;;;;;;;;;5088719;28;20054;-76
2022/12/21 01:06:59;;;;;;;107.20;74.55;;;;;;;;;;5102263;28;20213;-75
2022/12/21 01:09:24;;;;;;;106.20;73.70;;;;;;;;;;5101574;28;20042;-75
2022/12/21 01:11:49;;;;;;;98.22;69.80;;;;;;;;;;5102144;28;20038;-75
2022/12/21 01:14:14;;;;;;;96.28;63.40;;;;;;;;;;5102595;28;20034;-76
2022/12/21 01:16:40;;;;;;;94.75;62.55;;;;;;;;;;5089611;28;20020;-77
2022/12/21 01:19:06;;;;;;;95.35;63.35;;;;;;;;;;5091687;28;20054;-75
2022/12/21 01:21:32;;;;;;;91.40;61.60;;;;;;;;;;5100401;28;20047;-78
2022/12/21 01:23:58;;;;;;;97.80;67.05;;;;;;;;;;5092574;28;20382;-76
2022/12/21 01:26:24;;;;;;;97.45;68.10;;;;;;;;;;5102058;28;20035;-76
2022/12/21 01:28:49;;;;;;;99.63;69.28;;;;;;;;;;5088310;28;20035;-76
2022/12/21 01:31:15;;;;;;;95.20;65.70;;;;;;;;;;5091088;28;20026;-76
2022/12/21 01:33:40;;;;;;;95.53;64.20;;;;;;;;;;5100569;28;20024;-76
2022/12/21 01:36:07;;;;;;;88.68;60.13;;;;;;;;;;5101390;28;20094;-77
2022/12/21 01:38:32;;;;;;;96.43;65.32;;;;;;;;;;5091928;28;20028;-78
2022/12/21 01:40:58;;;;;;;91.90;61.25;;;;;;;;;;5097726;28;20469;-77
2022/12/21 01:43:40;;;;;;;110.82;85.88;;;;;;;;;;5089104;28;20031;-77
2022/12/21 01:46:07;;;;;;;84.10;60.45;;;;;;;;;;5097844;28;20031;-77
2022/12/21 01:48:36;;;;;;;73.80;51.65;;;;;;;;;;5094105;28;20016;-78
2022/12/21 01:51:03;;;;;;;78.50;52.53;;;;;;;;;;5102579;28;20027;-78
2022/12/21 01:53:31;;;;;;;75.70;50.50;;;;;;;;;;5101488;28;20031;-78
2022/12/21 01:55:58;;;;;;;78.25;54.42;;;;;;;;;;5102396;28;20076;-77
2022/12/21 01:58:24;;;;;;;67.85;46.88;;;;;;;;;;5102057;28;20024;-77
2022/12/21 02:00:49;;;;;;;75.43;51.05;;;;;;;;;;5100420;28;20076;-79
2022/12/21 02:03:17;;;;;;;74.65;51.70;;;;;;;;;;5088010;28;20035;-77
2022/12/21 02:05:42;;;;;;;101.88;77.65;;;;;;;;;;5100683;28;20103;-77
2022/12/21 02:08:07;;;;;;;86.97;61.30;;;;;;;;;;5102330;28;20158;-77
2022/12/21 02:10:33;;;;;;;83.53;61.13;;;;;;;;;;5090422;28;20039;-76
2022/12/21 02:13:04;;;;;;;78.30;55.28;;;;;;;;;;5092500;28;20039;-77
2022/12/21 02:15:56;;;;;;;71.30;48.75;;;;;;;;;;5100996;28;20032;-77
2022/12/21 02:18:27;;;;;;;74.25;53.78;;;;;;;;;;5051440;28;20070;-79
2022/12/21 02:21:13;;;;;;;78.72;55.85;;;;;;;;;;5099093;28;20048;-78
2022/12/21 02:23:57;;;;;;;72.57;53.30;;;;;;;;;;5092398;28;20591;-77
2022/12/21 02:26:45;;;;;;;81.75;59.35;;;;;;;;;;5090529;28;20092;-80
2022/12/21 02:29:10;;;;;;;86.00;62.25;;;;;;;;;;5101704;28;20438;-78
2022/12/21 02:31:52;;;;;;;81.13;54.83;;;;;;;;;;5101634;28;20027;-78
2022/12/21 02:34:46;;;;;;;85.45;58.00;;;;;;;;;;5091031;28;20457;-77
2022/12/21 02:37:24;;;;;;;70.28;49.33;;;;;;;;;;5019612;28;20045;-76
2022/12/21 02:39:59;;;;;;;70.57;48.58;;;;;;;;;;5020392;28;20025;-76
2022/12/21 02:45:14;;;;;;;;;;;;;;;;;;5018413;28;20035;-77
2022/12/21 02:47:44;;;;;;;65.88;45.35;;;;;;;;;;5025726;28;19909;-76
2022/12/21 02:50:11;;;;;;;67.68;46.22;;;;;;;;;;5024486;28;20467;-77
2022/12/21 02:52:55;;;;;;;69.30;46.38;;;;;;;;;;5018334;28;20132;-77
2022/12/21 02:55:20;;;;;;;65.80;44.55;;;;;;;;;;5027210;28;20076;-78
2022/12/21 02:57:45;;;;;;;67.25;46.50;;;;;;;;;;5025631;28;20088;-78
2022/12/21 03:00:12;;;;;;;63.50;44.88;;;;;;;;;;5029868;28;20148;-80
2022/12/21 03:03:47;;;;;;;60.55;43.60;;;;;;;;;;5027671;28;20473;-78
2022/12/21 03:05:59;;;;;;;64.90;45.95;;;;;;;;;;5022973;28;20120;-79
2022/12/21 03:08:28;;;;;;;68.93;48.33;;;;;;;;;;5021257;28;20030;-77
2022/12/21 03:10:56;;;;;;;75.75;51.20;;;;;;;;;;5024454;28;20116;-77
2022/12/21 03:13:21;;;;;;;78.32;52.28;;;;;;;;;;5057291;28;20043;-78
2022/12/21 03:15:52;;;;;;;88.07;52.67;;;;;;;;;;5089461;28;20028;-79
2022/12/21 03:18:25;;;;;;;85.82;53.70;;;;;;;;;;5103466;28;20091;-79
2022/12/21 03:20:51;;;;;;;89.38;57.10;;;;;;;;;;5102062;28;20056;-78
2022/12/21 03:23:20;;;;;;;88.32;57.60;;;;;;;;;;5092378;28;20050;-76
2022/12/21 03:26:04;;;;;;;81.10;52.75;;;;;;;;;;5100454;28;20042;-76
2022/12/21 03:28:31;;;;;;;83.55;52.78;;;;;;;;;;5085672;28;20118;-76
2022/12/21 03:31:00;;;;;;;86.47;56.13;;;;;;;;;;5104578;28;20034;-77
2022/12/21 03:33:27;;;;;;;90.83;59.67;;;;;;;;;;5103531;28;20077;-77
2022/12/21 03:36:19;;;;;;;109.85;72.25;;;;;;;;;;5104579;28;20476;-76
2022/12/21 03:38:56;;;;;;;105.57;67.95;;;;;;;;;;5101657;28;20046;-76
2022/12/21 03:41:36;;;;;;;104.75;67.00;;;;;;;;;;5104057;28;20320;-76
2022/12/21 03:44:03;;;;;;;98.95;65.03;;;;;;;;;;5103123;28;20019;-76
2022/12/21 03:46:34;;;;;;;85.60;58.00;;;;;;;;;;5104211;28;20144;-76
2022/12/21 03:49:02;;;;;;;89.93;60.85;;;;;;;;;;5091634;28;20461;-75
2022/12/21 03:52:04;;;;;;;87.10;57.45;;;;;;;;;;5103817;28;20023;-78
2022/12/21 03:54:29;;;;;;;82.00;52.38;;;;;;;;;;4991152;28;20467;-78
2022/12/21 03:56:55;;;;;;;82.57;52.28;;;;;;;;;;4993278;28;20038;-77
2022/12/21 03:59:20;;;;;;;83.97;50.53;;;;;;;;;;4994766;28;20030;-76
2022/12/21 04:02:04;;;;;;;82.07;52.10;;;;;;;;;;4992542;28;20041;-77
2022/12/21 04:04:41;;;;;;;80.68;52.38;;;;;;;;;;4993475;28;20461;-77
2022/12/21 04:07:07;;;;;;;79.82;52.03;;;;;;;;;;4994729;28;20072;-76
2022/12/21 04:09:32;;;;;;;80.10;54.88;;;;;;;;;;4979829;28;20069;-78
2022/12/21 04:14:43;;;;;;;83.00;53.00;;;;;;;;;;4992687;28;20148;-78
2022/12/21 04:17:08;;;;;;;80.40;53.08;;;;;;;;;;4979239;28;20028;-76
2022/12/21 04:30:30;;;;;;;90.22;59.63;;;;;;;;;;5088187;28;20091;-76
2022/12/21 04:32:56;;;;;;;89.93;58.55;;;;;;;;;;5100292;28;20035;-76
2022/12/21 04:35:21;;;;;;;79.05;51.58;;;;;;;;;;5103530;28;20020;-76
2022/12/21 04:37:46;;;;;;;77.10;49.72;;;;;;;;;;5103332;28;20320;-76
2022/12/21 04:40:11;;;;;;;76.53;49.15;;;;;;;;;;5103492;28;20027;-76
2022/12/21 04:42:39;;;;;;;90.07;57.80;;;;;;;;;;5102948;28;20076;-76
2022/12/21 04:45:05;;;;;;;85.60;53.83;;;;;;;;;;5102884;28;20038;-78
2022/12/21 04:47:30;;;;;;;79.80;51.55;;;;;;;;;;5092685;28;20446;-77
2022/12/21 04:49:56;;;;;;;107.43;78.43;;;;;;;;;;5101563;28;20019;-76
2022/12/21 04:52:21;;;;;;;82.38;55.83;;;;;;;;;;5102612;28;20108;-77
2022/12/21 04:54:46;;;;;;;71.65;49.03;;;;;;;;;;5096914;28;20041;-77
2022/12/21 04:57:11;;;;;;;81.20;56.22;;;;;;;;;;5088594;28;20533;-77
2022/12/21 04:59:37;;;;;;;84.30;55.10;;;;;;;;;;5089559;28;20034;-77
2022/12/21 05:02:02;;;;;;;80.05;53.75;;;;;;;;;;5088933;28;20043;-78
2022/12/21 05:04:27;;;;;;;74.93;49.22;;;;;;;;;;5094721;28;20038;-79
2022/12/21 05:06:54;;;;;;;71.85;48.25;;;;;;;;;;5103285;28;20031;-78
2022/12/21 05:09:20;;;;;;;85.95;55.38;;;;;;;;;;5101970;28;20070;-75
2022/12/21 05:11:45;;;;;;;81.90;53.42;;;;;;;;;;5103211;28;20055;-76
2022/12/21 05:14:10;;;;;;;80.75;52.22;;;;;;;;;;5102353;28;20353;-75
2022/12/21 05:16:38;;;;;;;159.65;103.88;;;;;;;;;;5102096;28;20038;-76
2022/12/21 05:19:03;;;;;;;162.90;101.88;;;;;;;;;;5085116;28;20024;-77
2022/12/21 05:21:29;;;;;;;131.90;84.97;;;;;;;;;;5090453;28;20136;-78
2022/12/21 05:23:54;;;;;;;164.55;103.97;;;;;;;;;;5102752;28;20132;-77
2022/12/21 05:26:19;;;;;;;143.05;94.82;;;;;;;;;;5102329;28;20019;-75
2022/12/21 05:28:45;;;;;;;143.70;92.30;;;;;;;;;;5101658;28;20024;-77
2022/12/21 05:31:11;;;;;;;193.13;130.40;;;;;;;;;;5102130;28;20016;-75
2022/12/21 05:33:36;;;;;;;141.65;94.63;;;;;;;;;;5101944;28;20019;-78
2022/12/21 05:36:07;;;;;;;147.18;97.55;;;;;;;;;;5102762;28;20031;-75
2022/12/21 05:38:32;;;;;;;198.25;131.88;;;;;;;;;;5101260;28;20026;-74
2022/12/21 05:40:57;;;;;;;134.95;88.10;;;;;;;;;;5102268;28;20107;-76
2022/12/21 05:43:23;;;;;;;196.00;128.13;;;;;;;;;;5086315;28;20114;-74
2022/12/21 05:45:48;;;;;;;148.93;103.53;;;;;;;;;;5102239;28;20027;-79
2022/12/21 05:48:14;;;;;;;149.23;98.35;;;;;;;;;;5094864;28;20055;-79
2022/12/21 05:50:39;;;;;;;134.25;87.13;;;;;;;;;;5101212;28;20399;-79
2022/12/21 05:53:05;;;;;;;187.68;131.18;;;;;;;;;;5104192;28;20767;-79
2022/12/21 05:55:31;;;;;;;200.55;142.27;;;;;;;;;;5111402;28;20039;-77
2022/12/21 05:57:56;;;;;;;119.05;86.85;;;;;;;;;;5112411;28;20102;-76
2022/12/21 06:00:22;;;;;;;114.78;81.45;;;;;;;;;;5111423;28;20110;-78
2022/12/21 06:02:47;;;;;;;96.20;62.55;;;;;;;;;;5112278;28;20035;-78
2022/12/21 06:05:12;;;;;;;86.00;59.50;;;;;;;;;;5112599;28;20435;-78
2022/12/21 06:07:38;;;;;;;222.77;141.05;;;;;;;;;;5098047;28;20023;-78
2022/12/21 06:10:03;;;;;;;210.50;125.35;;;;;;;;;;5102036;28;20023;-79
2022/12/21 06:12:29;;;;;;;128.85;82.78;;;;;;;;;;5102802;28;20028;-77
2022/12/21 06:14:55;;;;;;;150.68;95.63;;;;;;;;;;5102602;28;20465;-79
2022/12/21 06:17:20;;;;;;;142.85;87.60;;;;;;;;;;5102403;28;20062;-79
2022/12/21 06:19:45;;;;;;;138.18;92.10;;;;;;;;;;5102885;28;20065;-80
2022/12/21 06:22:10;;;;;;;177.77;104.95;;;;;;;;;;5100409;28;20039;-78
2022/12/21 06:24:36;;;;;;;128.98;77.72;;;;;;;;;;5092018;28;20092;-77
2022/12/21 06:27:01;;;;;;;171.38;103.97;;;;;;;;;;5092465;28;20019;-77
2022/12/21 06:29:26;;;;;;;276.23;167.93;;;;;;;;;;5090773;28;20077;-77
2022/12/21 06:31:52;;;;;;;197.57;120.57;;;;;;;;;;5091270;28;20357;-78
2022/12/21 06:34:17;;;;;;;139.80;87.57;;;;;;;;;;5095563;28;20023;-78
2022/12/21 06:36:42;;;;;;;148.23;84.32;;;;;;;;;;5105117;28;20059;-78
2022/12/21 06:39:08;;;;;;;132.18;76.40;;;;;;;;;;5093924;28;20444;-79
2022/12/21 06:41:33;;;;;;;164.10;103.32;;;;;;;;;;5096066;28;20093;-79
2022/12/21 06:43:58;;;;;;;130.82;66.45;;;;;;;;;;5102277;28;20515;-79
2022/12/21 06:46:23;;;;;;;121.88;73.90;;;;;;;;;;5104337;28;20077;-79
2022/12/21 06:48:49;;;;;;;151.07;92.95;;;;;;;;;;5098241;28;20032;-78
2022/12/21 06:51:16;;;;;;;196.75;131.43;;;;;;;;;;5100502;28;20027;-80
2022/12/21 06:53:42;;;;;;;196.57;132.00;;;;;;;;;;5089191;28;20392;-79
2022/12/21 06:56:12;;;;;;;105.03;62.78;;;;;;;;;;5104851;28;20070;-80
2022/12/21 06:58:37;;;;;;;158.40;106.70;;;;;;;;;;5105536;28;20015;-78
2022/12/21 07:01:06;;;;;;;318.17;202.85;;;;;;;;;;5104953;28;20488;-79
2022/12/21 07:03:32;;;;;;;284.23;192.73;;;;;;;;;;5104957;28;20435;-79
2022/12/21 07:05:58;;;;;;;305.20;203.40;;;;;;;;;;5105902;28;20035;-78
2022/12/21 07:08:23;;;;;;;338.50;219.85;;;;;;;;;;5105007;28;20446;-79
2022/12/21 07:10:48;;;;;;;318.88;101.75;;;;;;;;;;5104456;27;20085;-78
2022/12/21 07:13:13;;;;;;;114.35;71.28;;;;;;;;;;5105178;28;20474;-78
2022/12/21 07:15:39;;;;;;;121.95;76.88;;;;;;;;;;5104139;28;20055;-78
2022/12/21 07:18:04;;;;;;;162.93;96.43;;;;;;;;;;5105160;28;20031;-79
2022/12/21 07:20:29;;;;;;;124.28;77.60;;;;;;;;;;5104549;28;20091;-78
2022/12/21 07:22:55;;;;;;;142.63;90.22;;;;;;;;;;5105142;28;20115;-78
2022/12/21 07:25:20;;;;;;;121.43;76.55;;;;;;;;;;5105257;28;20067;-78
2022/12/21 07:27:45;;;;;;;136.80;85.30;;;;;;;;;;5104822;28;20057;-79
2022/12/21 07:30:11;;;;;;;128.77;83.43;;;;;;;;;;5104694;28;20080;-78
2022/12/21 07:32:36;;;;;;;128.68;80.15;;;;;;;;;;5104491;28;20035;-78
2022/12/21 07:35:02;;;;;;;155.35;97.15;;;;;;;;;;5104768;28;20065;-78
2022/12/21 07:37:27;;;;;;;173.68;115.40;;;;;;;;;;5104934;28;20034;-77
2022/12/21 07:39:52;;;;;;;191.00;127.90;;;;;;;;;;5089635;28;20454;-79
2022/12/21 07:42:17;;;;;;;180.95;121.22;;;;;;;;;;5104607;28;20114;-79
2022/12/21 07:44:43;;;;;;;154.50;107.53;;;;;;;;;;5103670;28;20027;-78
2022/12/21 07:47:08;;;;;;;152.57;95.82;;;;;;;;;;5104308;28;20346;-78
2022/12/21 07:49:34;;;;;;;128.45;81.07;;;;;;;;;;5103830;28;20106;-79
2022/12/21 07:51:59;;;;;;;123.28;78.30;;;;;;;;;;5104801;28;20035;-78
2022/12/21 07:54:24;;;;;;;123.10;78.75;;;;;;;;;;5104321;28;20032;-77
2022/12/21 07:56:50;;;;;;;113.18;71.68;;;;;;;;;;5104519;28;20065;-77
2022/12/21 07:59:15;;;;;;;113.85;74.93;;;;;;;;;;5104106;28;20481;-78
2022/12/21 08:01:40;;;;;;;97.18;60.50;;;;;;;;;;5103654;28;20050;-79
2022/12/21 08:04:07;;;;;;;108.00;67.00;;;;;;;;;;5104540;28;20031;-79
2022/12/21 08:06:32;;;;;;;131.30;83.57;;;;;;;;;;5090472;28;20023;-80
2022/12/21 08:08:58;;;;;;;135.15;87.97;;;;;;;;;;5103109;28;20049;-79
2022/12/21 08:11:23;;;;;;;191.65;125.75;;;;;;;;;;5103511;28;20088;-79
2022/12/21 08:13:49;;;;;;;174.38;107.40;;;;;;;;;;5102998;28;20073;-81
2022/12/21 08:16:15;;;;;;;223.75;147.48;;;;;;;;;;5087531;28;20396;-79
2022/12/21 08:18:40;;;;;;;203.45;129.43;;;;;;;;;;5089627;28;20084;-78
2022/12/21 08:21:06;;;;;;;203.65;127.60;;;;;;;;;;5088495;28;20047;-79
2022/12/21 08:23:31;;;;;;;227.98;145.60;;;;;;;;;;5096279;28;20105;-79
2022/12/21 08:26:01;;;;;;;304.38;210.25;;;;;;;;;;5102526;28;20023;-80
2022/12/21 08:28:26;;;;;;;217.73;142.93;;;;;;;;;;5103668;28;20031;-79
2022/12/21 08:30:52;;;;;;;207.68;141.25;;;;;;;;;;5092029;28;20143;-79
2022/12/21 08:33:17;;;;;;;168.90;114.72;;;;;;;;;;5090300;28;20100;-78
2022/12/21 08:35:43;;;;;;;179.95;123.43;;;;;;;;;;5087176;28;20015;-79
2022/12/21 08:38:08;;;;;;;157.65;108.97;;;;;;;;;;5089494;28;20451;-78
2022/12/21 08:40:33;;;;;;;138.32;95.07;;;;;;;;;;5076924;28;20495;-79
2022/12/21 08:42:58;;;;;;;118.40;82.20;;;;;;;;;;5088821;28;20030;-79
2022/12/21 08:45:24;;;;;;;106.22;74.35;;;;;;;;;;5089615;28;20031;-76
2022/12/21 08:47:49;;;;;;;105.68;75.88;;;;;;;;;;5089054;28;20608;-77
2022/12/21 08:50:15;;;;;;;111.75;79.68;;;;;;;;;;5088750;28;20024;-77
2022/12/21 08:52:40;;;;;;;111.07;80.38;;;;;;;;;;5089322;28;20358;-77
2022/12/21 08:55:05;;;;;;;128.73;91.05;;;;;;;;;;5089047;28;20031;-77
2022/12/21 08:57:31;;;;;;;91.35;63.50;;;;;;;;;;5088716;28;20069;-78
2022/12/21 08:59:56;;;;;;;133.05;98.35;;;;;;;;;;5089242;28;20020;-78
2022/12/21 09:02:21;;;;;;;156.98;112.97;;;;;;;;;;5088834;28;20027;-80
2022/12/21 09:04:47;;;;;;;99.53;70.60;;;;;;;;;;5088462;28;20020;-77
2022/12/21 09:07:12;;;;;;;101.20;67.50;;;;;;;;;;5087491;28;20115;-78
2022/12/21 09:09:37;;;;;;;92.13;64.50;;;;;;;;;;5088348;28;20038;-77
2022/12/21 09:12:03;;;;;;;104.72;74.60;;;;;;;;;;5087740;28;20027;-76
2022/12/21 09:14:29;;;;;;;113.35;80.50;;;;;;;;;;5089543;28;20066;-78
2022/12/21 09:16:54;;;;;;;126.55;90.80;;;;;;;;;;5089005;28;20019;-76
2022/12/21 09:19:19;;;;;;;77.90;56.72;;;;;;;;;;5088489;28;20726;-77
2022/12/21 09:21:45;;;;;;;78.63;54.03;;;;;;;;;;5091787;28;20051;-78
2022/12/21 09:24:10;;;;;;;68.50;49.55;;;;;;;;;;5102973;28;20023;-78
2022/12/21 09:26:35;;;;;;;77.65;56.70;;;;;;;;;;5092113;28;20019;-79
2022/12/21 09:29:01;;;;;;;79.85;54.53;;;;;;;;;;5088665;28;20370;-78
2022/12/21 09:31:26;;;;;;;81.20;60.38;;;;;;;;;;5087766;28;20342;-79
2022/12/21 09:33:55;;;;;;;80.65;57.97;;;;;;;;;;5088852;28;20135;-77
2022/12/21 09:36:21;;;;;;;218.23;154.63;;;;;;;;;;5083786;28;20346;-79
2022/12/21 09:38:46;;;;;;;287.42;213.75;;;;;;;;;;5082388;28;20051;-77
2022/12/21 09:41:20;;;;;;;337.88;248.82;;;;;;;;;;5084901;28;20074;-77
2022/12/21 09:43:45;;;;;;;190.30;144.63;;;;;;;;;;5087351;28;20041;-78
2022/12/21 09:46:12;;;;;;;188.07;141.93;;;;;;;;;;5086091;28;20031;-78
2022/12/21 09:48:43;;;;;;;183.32;141.45;;;;;;;;;;5088475;28;20475;-78
2022/12/21 09:51:11;;;;;;;147.95;117.15;;;;;;;;;;5088251;28;20030;-78
2022/12/21 09:53:44;;;;;;;157.60;119.82;;;;;;;;;;5088066;28;20047;-80
2022/12/21 09:56:11;;;;;;;179.95;130.43;;;;;;;;;;5080462;28;20024;-79
2022/12/21 09:58:38;;;;;;;167.88;123.13;;;;;;;;;;5092524;28;20023;-78
2022/12/21 10:01:14;;;;;;;144.13;108.60;;;;;;;;;;5092765;27;20035;-80
2022/12/21 10:03:58;;;;;;;171.10;126.97;;;;;;;;;;5105099;28;20222;-79
2022/12/21 10:06:41;;;;;;;135.73;101.40;;;;;;;;;;5105839;28;20385;-79
2022/12/21 10:09:09;;;;;;;139.00;102.88;;;;;;;;;;5105998;28;20402;-78
2022/12/21 10:11:53;;;;;;;141.60;104.07;;;;;;;;;;5106368;28;20032;-80
2022/12/21 10:14:41;;;;;;;142.57;100.45;;;;;;;;;;5105674;28;20434;-79
2022/12/21 10:17:25;;;;;;;147.27;104.28;;;;;;;;;;5087939;27;20100;-80
2022/12/21 10:19:56;;;;;;;128.52;94.35;;;;;;;;;;5095004;28;20023;-79
2022/12/21 10:22:22;;;;;;;170.13;109.80;;;;;;;;;;5091746;27;20474;-78
2022/12/21 10:24:49;;;;;;;127.07;94.68;;;;;;;;;;5095538;28;20054;-76
2022/12/21 10:27:15;;;;;;;153.82;102.43;;;;;;;;;;5093634;27;20771;-79
2022/12/21 10:29:41;;;;;;;161.25;103.65;;;;;;;;;;5080668;28;20024;-78
2022/12/21 10:32:11;;;;;;;149.48;96.70;;;;;;;;;;5096479;28;20027;-78
2022/12/21 10:34:36;;;;;;;;;;;;;;;;;;5094165;27;20473;-78
2022/12/21 10:37:08;;;;;;;124.50;81.43;;;;;;;;;;5096824;27;19912;-78
2022/12/21 10:39:33;;;;;;;112.63;77.80;;;;;;;;;;5091996;27;20255;-80
2022/12/21 10:42:04;;;;;;;103.40;72.75;;;;;;;;;;5091649;28;20344;-80
2022/12/21 10:44:29;;;;;;;93.22;69.00;;;;;;;;;;5084905;28;20100;-78
2022/12/21 10:46:54;;;;;;;99.20;68.22;;;;;;;;;;5093683;27;20028;-79
2022/12/21 10:49:29;;;;;;;106.20;74.35;;;;;;;;;;5092661;27;20110;-79
2022/12/21 10:51:54;;;;;;;96.68;66.50;;;;;;;;;;5095862;28;20442;-81
2022/12/21 10:54:27;;;;;;;78.95;59.53;;;;;;;;;;5092073;28;20069;-77
2022/12/21 10:56:52;;;;;;;99.03;67.22;;;;;;;;;;5093587;28;20032;-78
2022/12/21 10:59:26;;;;;;;80.43;59.47;;;;;;;;;;5091055;28;20020;-80
2022/12/21 11:01:52;;;;;;;71.72;52.88;;;;;;;;;;5092618;27;20110;-76
2022/12/21 11:04:26;;;;;;;70.50;53.28;;;;;;;;;;5090993;28;20161;-79
2022/12/21 11:07:05;;;;;;;69.38;51.05;;;;;;;;;;5097799;28;20343;-80
2022/12/21 11:09:33;;;;;;;68.35;50.17;;;;;;;;;;5092606;28;20015;-80
2022/12/21 11:12:17;;;;;;;69.68;50.92;;;;;;;;;;5092397;28;20036;-81
2022/12/21 11:14:42;;;;;;;70.65;51.35;;;;;;;;;;5092635;28;20455;-81
2022/12/21 11:17:23;;;;;;;70.28;54.45;;;;;;;;;;5073564;27;20041;-77
2022/12/21 11:19:50;;;;;;;74.32;57.10;;;;;;;;;;5090349;28;20068;-79
2022/12/21 11:22:19;;;;;;;78.00;60.42;;;;;;;;;;5094342;28;20093;-80
2022/12/21 11:24:45;;;;;;;70.47;52.45;;;;;;;;;;5092621;27;20019;-80
2022/12/21 11:27:10;;;;;;;71.38;54.15;;;;;;;;;;5085044;28;20024;-78
2022/12/21 11:29:46;;;;;;;84.63;64.35;;;;;;;;;;5096238;27;20030;-80
2022/12/21 11:32:13;;;;;;;81.68;62.70;;;;;;;;;;5094871;28;20036;-81
2022/12/21 11:34:48;;;;;;;90.82;63.60;;;;;;;;;;5096224;28;20511;-80
2022/12/21 11:37:22;;;;;;;203.82;133.02;;;;;;;;;;5097158;28;20032;-81
2022/12/21 11:39:48;;;;;;;92.20;65.25;;;;;;;;;;5092173;28;20032;-82
2022/12/21 11:42:17;;;;;;;64.45;49.45;;;;;;;;;;5092820;27;20038;-79
2022/12/21 11:44:42;;;;;;;120.82;89.22;;;;;;;;;;5087098;28;20031;-81
2022/12/21 11:47:16;;;;;;;88.63;67.32;;;;;;;;;;5095818;28;20035;-79
2022/12/21 11:50:00;;;;;;;70.68;52.65;;;;;;;;;;5104897;28;20034;-77
2022/12/21 11:52:44;;;;;;;87.15;66.40;;;;;;;;;;5102702;28;20031;-78
2022/12/21 11:55:19;;;;;;;79.25;62.08;;;;;;;;;;5103687;28;20027;-77
2022/12/21 11:57:47;;;;;;;64.20;55.83;;;;;;;;;;5103494;28;20029;-78
2022/12/21 12:00:12;;;;;;;65.13;49.55;;;;;;;;;;5102511;28;20131;-78
2022/12/21 12:02:47;;;;;;;53.72;45.10;;;;;;;;;;5103338;28;20119;-77
2022/12/21 12:05:22;;;;;;;58.70;46.47;;;;;;;;;;5102621;28;20155;-76
2022/12/21 12:07:54;;;;;;;61.70;48.05;;;;;;;;;;5104280;28;20054;-77
2022/12/21 12:10:38;;;;;;;55.70;40.80;;;;;;;;;;5103539;28;20047;-77
2022/12/21 12:13:15;;;;;;;66.20;48.55;;;;;;;;;;5118327;27;20080;-77
2022/12/21 12:16:01;;;;;;;57.67;42.97;;;;;;;;;;5103523;28;20125;-77
2022/12/21 12:18:42;;;;;;;52.42;41.85;;;;;;;;;;5102539;28;20412;-77
2022/12/21 12:21:10;;;;;;;51.95;42.90;;;;;;;;;;5102631;28;20126;-78
2022/12/21 12:23:41;;;;;;;48.42;36.17;;;;;;;;;;5102655;28;20430;-77
2022/12/21 12:26:16;;;;;;;53.00;37.22;;;;;;;;;;5103508;28;20028;-77
2022/12/21 12:28:56;;;;;;;46.75;33.80;;;;;;;;;;5103731;27;20485;-78
2022/12/21 12:31:42;;;;;;;44.42;32.30;;;;;;;;;;5103396;28;20056;-78
2022/12/21 12:34:07;;;;;;;47.15;33.05;;;;;;;;;;5089548;28;20482;-78
2022/12/21 12:36:42;;;;;;;53.95;35.63;;;;;;;;;;5103636;28;20054;-77
2022/12/21 12:39:29;;;;;;;38.70;30.98;;;;;;;;;;5103101;28;20035;-78
2022/12/21 12:42:03;;;;;;;69.00;40.97;;;;;;;;;;5103218;28;20042;-77
2022/12/21 12:44:29;;;;;;;46.67;33.67;;;;;;;;;;5103359;28;20092;-78
2022/12/21 12:46:57;;;;;;;46.75;34.38;;;;;;;;;;5103348;28;20023;-78
2022/12/21 12:49:34;;;;;;;43.40;32.30;;;;;;;;;;5103090;28;20746;-77
2022/12/21 12:52:05;;;;;;;43.47;31.95;;;;;;;;;;5102846;28;20028;-77
2022/12/21 12:54:49;;;;;;;37.85;29.40;;;;;;;;;;5102515;28;20035;-77
2022/12/21 12:57:19;;;;;;;39.25;30.88;;;;;;;;;;5103510;28;20039;-76
2022/12/21 12:59:51;;;;;;;44.00;36.17;;;;;;;;;;5103359;28;20047;-77
2022/12/21 13:02:35;;;;;;;56.15;39.88;;;;;;;;;;5102869;28;20080;-77
2022/12/21 13:05:00;;;;;;;57.70;42.75;;;;;;;;;;5103660;28;20036;-78
2022/12/21 13:07:26;;;;;;;40.30;30.85;;;;;;;;;;5102903;28;20030;-77
2022/12/21 13:09:51;;;;;;;38.45;30.25;;;;;;;;;;5103351;28;20076;-77
2022/12/21 13:12:28;;;;;;;50.58;42.13;;;;;;;;;;5103008;28;20023;-77
2022/12/21 13:14:59;;;;;;;95.07;68.93;;;;;;;;;;5103264;28;20020;-76
2022/12/21 13:17:27;;;;;;;117.18;86.85;;;;;;;;;;5102826;28;20065;-76
2022/12/21 13:19:53;;;;;;;87.60;70.53;;;;;;;;;;5103200;28;20023;-77
2022/12/21 13:22:20;;;;;;;155.23;101.50;;;;;;;;;;5102921;28;20660;-77
2022/12/21 13:24:53;;;;;;;98.07;74.22;;;;;;;;;;5103085;28;20024;-77
2022/12/21 13:27:21;;;;;;;65.43;52.47;;;;;;;;;;5102695;28;20079;-76
2022/12/21 13:29:52;;;;;;;68.30;51.15;;;;;;;;;;5101235;28;20451;-76
2022/12/21 13:32:20;;;;;;;85.72;61.40;;;;;;;;;;5103050;28;20729;-77
2022/12/21 13:34:51;;;;;;;112.03;78.57;;;;;;;;;;5102431;28;20027;-77
2022/12/21 13:37:20;;;;;;;103.95;73.68;;;;;;;;;;5102438;28;20032;-76
2022/12/21 13:39:51;;;;;;;114.90;75.57;;;;;;;;;;5102758;28;20460;-76
2022/12/21 13:42:20;;;;;;;159.48;99.68;;;;;;;;;;5102763;28;20039;-79
2022/12/21 13:44:48;;;;;;;121.05;78.70;;;;;;;;;;5102310;28;20454;-77
2022/12/21 13:47:14;;;;;;;176.60;106.63;;;;;;;;;;5102861;28;20042;-76
2022/12/21 13:49:42;;;;;;;97.95;60.65;;;;;;;;;;5102230;28;20092;-78
2022/12/21 13:52:28;;;;;;;99.20;73.35;;;;;;;;;;5100066;28;20034;-77
2022/12/21 13:55:09;;;;;;;71.60;56.05;;;;;;;;;;5101514;28;20035;-78
2022/12/21 13:57:38;;;;;;;72.60;56.03;;;;;;;;;;5090830;28;20058;-77
2022/12/21 14:00:22;;;;;;;68.20;50.88;;;;;;;;;;5087570;28;20042;-76
2022/12/21 14:03:06;;;;;;;62.08;46.50;;;;;;;;;;5087859;28;20454;-76
2022/12/21 14:05:37;;;;;;;68.25;49.92;;;;;;;;;;5097804;28;20119;-78
2022/12/21 14:08:09;;;;;;;66.05;50.75;;;;;;;;;;5102279;28;20110;-78
2022/12/21 14:10:35;;;;;;;79.25;57.13;;;;;;;;;;5102424;28;20073;-77
2022/12/21 14:13:00;;;;;;;75.90;56.53;;;;;;;;;;5100882;28;20035;-77
2022/12/21 14:15:29;;;;;;;70.97;53.92;;;;;;;;;;5101615;28;20024;-78
2022/12/21 14:17:56;;;;;;;89.28;66.40;;;;;;;;;;5093306;28;20039;-77
2022/12/21 14:20:27;;;;;;;87.72;66.18;;;;;;;;;;5095895;28;20051;-76
2022/12/21 15:43:56;;;;;;;78.53;59.92;;;;;;;;;;5079809;27;20447;-78
2022/12/21 15:46:35;;;;;;;91.38;70.43;;;;;;;;;;5080146;28;20032;-80
2022/12/21 15:49:01;;;;;;;89.82;67.30;;;;;;;;;;5077294;28;20059;-79
2022/12/21 15:51:28;;;;;;;124.55;96.20;;;;;;;;;;5078536;28;20634;-79
2022/12/21 15:54:09;;;;;;;123.07;94.43;;;;;;;;;;5078327;28;20024;-79
2022/12/21 15:56:34;;;;;;;194.98;143.20;;;;;;;;;;5078069;28;20031;-80